Terminal Aerodrome Forecast
Issued by NWS

Home | Current Version | Previous Version | Text Only | Print | Product List | Glossary On
Versions: 1 2 3 4 5 6 7 8 9 10 11 12 13 14 15 16 17 18 19 20 21 22 23 24 25
000
FTUS46 KLOX 292333
TAFVNY
TAF
KVNY 292333Z 3000/3024 17007KT P6SM SKC
     FM300300 VRB03KT P6SM SKC
     FM301200 01004KT P6SM SCT250
     FM301800 35008KT P6SM SCT250
     FM302100 03016G22KT P6SM BKN250=

USA.gov is the U.S. government's official web portal to all federal, state and local government web resources and services.